EST,Max TemperatureF,Mean TemperatureF,Min TemperatureF,Max Dew PointF,MeanDew PointF,Min DewpointF,Max Humidity, Mean Humidity, Min Humidity, Max Sea Level PressureIn, Mean Sea Level PressureIn, Min Sea Level PressureIn, Max VisibilityMiles, Mean VisibilityMiles, Min VisibilityMiles, Max Wind SpeedMPH, Mean Wind SpeedMPH, Max Gust SpeedMPH,PrecipitationIn, CloudCover, Events, WindDirDegrees
2013-2-1,64,52,39,35,29,24,73,44,23,30.34,30.29,30.25,10,10,8,18,7,23,0.00,0,,312
2013-2-2,64,52,39,42,33,25,86,55,28,30.36,30.27,30.18,10,10,10,8,4,,0.00,0,,355
2013-2-3,66,52,39,40,32,22,87,52,18,30.20,30.12,30.05,10,9,2,14,4,20,0.00,0,,286
2013-2-4,64,52,39,45,39,32,83,64,33,30.15,30.10,30.06,10,10,10,7,1,,0.00,0,,67
2013-2-5,69,56,43,53,43,33,89,63,32,30.12,30.06,30.01,10,10,10,9,1,,0.00,3,Rain,235
2013-2-6,71,64,57,56,53,50,81,71,51,30.17,30.12,30.07,10,10,7,7,2,,0.00,8,Rain,95
2013-2-7,78,70,62,63,60,56,90,77,48,30.10,29.98,29.84,10,10,9,14,5,17,0.02,5,Rain,173
2013-2-8,69,62,55,63,53,50,86,73,51,30.10,29.96,29.84,10,10,10,17,11,22,0.00,5,,302
2013-2-9,64,57,50,50,45,37,86,66,41,30.28,30.22,30.10,10,10,10,14,8,21,0.00,0,,34
2013-2-10,73,62,50,56,52,46,86,65,45,30.32,30.25,30.19,10,10,10,18,9,28,0.00,0,,134
2013-2-11,81,72,63,62,58,56,87,67,44,30.20,30.14,30.07,10,10,0,20,8,26,0.00,3,,197
2013-2-12,82,72,61,64,62,58,94,79,49,30.09,30.02,29.87,10,9,2,16,5,22,0.00,5,Rain,195
2013-2-13,78,71,64,70,63,45,88,74,41,29.94,29.86,29.81,10,9,0,17,12,28,0.20,7,Rain-Thunderstorm,241
2013-2-14,60,54,48,53,47,43,88,78,72,30.09,30.04,29.94,10,10,5,14,6,17,0.11,6,Rain,340
2013-2-15,62,53,44,45,43,39,90,71,51,30.12,30.06,30.00,10,10,10,9,5,,0.00,1,,14
2013-2-16,60,52,42,44,38,19,90,68,40,30.15,29.99,29.94,10,9,5,23,5,34,0.01,2,Rain,300
2013-2-17,52,43,34,28,15,3,75,39,14,30.37,30.27,30.17,10,10,10,17,11,28,0.00,0,,315
2013-2-18,60,44,28,40,31,23,82,63,31,30.43,30.35,30.25,10,10,10,12,2,20,0.00,0,,104
2013-2-19,78,60,43,61,51,38,90,70,35,30.24,30.12,30.02,10,10,7,23,8,32,0.01,4,Rain,246
2013-2-20,68,58,46,55,38,25,87,56,21,30.19,30.13,30.08,10,10,5,12,4,,0.00,1,,346
2013-2-21,68,56,43,57,46,37,86,68,43,30.17,30.10,30.07,10,10,7,9,2,,0.00,2,,74
2013-2-22,82,72,62,66,63,56,94,81,47,30.10,30.05,30.01,10,9,2,12,4,17,0.00,5,,168
2013-2-23,82,72,62,66,63,59,94,76,44,29.99,29.94,29.86,10,9,1,25,8,36,0.41,5,Rain,235
2013-2-24,73,67,61,61,57,39,94,81,28,30.03,29.94,29.87,10,8,2,13,6,,0.12,6,Rain-Thunderstorm,347
2013-2-25,69,64,60,65,59,56,94,87,73,29.96,29.91,29.81,10,7,1,18,10,28,1.67,7,Rain-Thunderstorm,55
2013-2-26,80,72,63,67,62,49,90,75,35,29.83,29.74,29.68,10,8,2,23,11,36,0.45,4,Rain,204
2013-2-27,70,62,55,51,43,38,72,53,31,29.98,29.91,29.84,10,10,10,14,9,20,0.00,0,,283
2013-2-28,70,60,50,44,37,29,71,44,29,29.98,29.92,29.86,10,10,10,20,8,26,0.00,0,,287